Detroit, Maine
Current Conditions -  °F | °C
As of 2:59 PM on Wednesday 26 Nov 2014 (Local Time) from KBGR Reporting Station
Moderate Snow Moderate Snow  
Wind Chill: 27°   Ceiling: 900
Heat Index: 33°   Visibility: 0.5mi
Dew Point: 32°   Wind: 7mph
Humidity: 96%   Direction: 10°N
Pressure: 30.19"   Gusts: NA
Location:  44.79°N, 69.3°W
Report Text: KBGR 261959Z 01006KT 1/2SM R15/4500FT SN FG FEW003 OVC009 01/00 A3019 RMK AO2 P0000 T00060000
Loading
Personal Weather Stations






























Interactive Weather Map New forecast layout! Learn more

10-Day Weather Forecast

Advertisements
Track Severe Weather on mobile